Latest Weather Observations for Melville Water

IDW60801

Issued at 5:54 am WST Wednesday 20 January 2021 (issued every 10 minutes, with the page automatically refreshed every 10 minutes)

About weather observations | Map of weather stations | Latest weather observations for WA | Other Formats
Station Details ID: 009091 Name: INNER DOLPHIN PYLON Lat: -31.99 Lon: 115.83 Height: 0.0 m
Data from the previous 72 hours. | See also: Recent months at Melville Water
Date/Time
WST
Temp
°C
App
Temp
°C
Dew
Point
°C
Rel
Hum
%
Delta-T
°C
Wind Press
QNH
hPa
Press
MSL
hPa
Rain since
9am
mm
Dir  Spd
km/h
Gust
km/h
Spd
kts
Gust
kts
20/05:30am - - - - - SW 13 17 7 9 - - -
20/05:00am - - - - - WSW 15 22 8 12 - - -
20/04:30am - - - - - W 13 15 7 8 - - -
20/04:00am - - - - - WSW 15 19 8 10 - - -
20/03:30am - - - - - WSW 6 11 3 6 - - -
20/03:00am - - - - - WSW 4 6 2 3 - - -
20/02:30am - - - - - W 6 7 3 4 - - -
20/02:00am - - - - - SW 7 11 4 6 - - -
20/01:30am - - - - - SW 11 13 6 7 - - -
20/01:00am - - - - - SSW 13 17 7 9 - - -
20/12:30am - - - - - SSW 13 17 7 9 - - -
20/12:00am - - - - - SSW 15 20 8 11 - - -
 
Date/Time
WST
Temp
°C
App
Temp
°C
Dew
Point
°C
Rel
Hum
%
Delta-T
°C
Wind Press
QNH
hPa
Press
MSL
hPa
Rain since
9am
mm
Dir  Spd
km/h
Gust
km/h
Spd
kts
Gust
kts
19/11:30pm - - - - - SW 17 22 9 12 - - -
19/11:00pm - - - - - SW 15 20 8 11 - - -
19/10:30pm - - - - - SW 13 19 7 10 - - -
19/10:00pm - - - - - SW 15 19 8 10 - - -
19/09:30pm - - - - - SW 15 19 8 10 - - -
19/09:00pm - - - - - SW 9 15 5 8 - - -
19/08:30pm - - - - - SSW 15 20 8 11 - - -
19/08:00pm - - - - - SSW 13 19 7 10 - - -
19/07:30pm - - - - - SSW 17 22 9 12 - - -
19/07:00pm - - - - - SSW 19 22 10 12 - - -
19/06:30pm - - - - - SW 20 24 11 13 - - -
19/06:00pm - - - - - WSW 20 22 11 12 - - -
19/05:30pm - - - - - SW 17 20 9 11 - - -
19/05:00pm - - - - - WSW 17 20 9 11 - - -
19/04:30pm - - - - - SW 17 22 9 12 - - -
19/04:00pm - - - - - WSW 15 20 8 11 - - -
19/03:30pm - - - - - WSW 17 20 9 11 - - -
19/03:00pm - - - - - WSW 13 19 7 10 - - -
19/02:30pm - - - - - WSW 22 30 12 16 - - -
19/02:00pm - - - - - W 24 28 13 15 - - -
19/01:30pm - - - - - WSW 22 28 12 15 - - -
19/01:00pm - - - - - WSW 20 26 11 14 - - -
19/12:30pm - - - - - W 15 20 8 11 - - -
19/12:00pm - - - - - W 19 28 10 15 - - -
19/11:30am - - - - - W 17 22 9 12 - - -
19/11:00am - - - - - SSE 4 9 2 5 - - -
19/10:30am - - - - - SSW 11 15 6 8 - - -
19/10:00am - - - - - SSW 9 11 5 6 - - -
19/09:30am - - - - - WSW 9 11 5 6 - - -
19/09:00am - - - - - SSW 6 7 3 4 - - -
19/08:30am - - - - - SSW 7 11 4 6 - - -
19/08:00am - - - - - SSW 13 13 7 7 - - -
19/07:30am - - - - - SW 7 9 4 5 - - -
19/07:00am - - - - - WSW 7 9 4 5 - - -
19/06:30am - - - - - SW 9 11 5 6 - - -
19/06:00am - - - - - W 2 7 1 4 - - -
19/05:30am - - - - - WSW 6 9 3 5 - - -
19/05:00am - - - - - ENE 11 15 6 8 - - -
19/04:30am - - - - - ENE 13 17 7 9 - - -
19/04:00am - - - - - ENE 11 13 6 7 - - -
19/03:30am - - - - - ENE 13 17 7 9 - - -
19/03:00am - - - - - ENE 11 15 6 8 - - -
19/02:30am - - - - - ENE 11 15 6 8 - - -
19/02:00am - - - - - ENE 15 19 8 10 - - -
19/01:30am - - - - - ENE 22 30 12 16 - - -
19/01:00am - - - - - ENE 22 28 12 15 - - -
19/12:30am - - - - - ENE 22 28 12 15 - - -
19/12:00am - - - - - ENE 20 24 11 13 - - -
 
Date/Time
WST
Temp
°C
App
Temp
°C
Dew
Point
°C
Rel
Hum
%
Delta-T
°C
Wind Press
QNH
hPa
Press
MSL
hPa
Rain since
9am
mm
Dir  Spd
km/h
Gust
km/h
Spd
kts
Gust
kts
18/11:30pm - - - - - ENE 19 24 10 13 - - -
18/11:00pm - - - - - ENE 17 20 9 11 - - -
18/10:30pm - - - - - ENE 17 20 9 11 - - -
18/10:00pm - - - - - ENE 17 19 9 10 - - -
18/09:30pm - - - - - ENE 17 20 9 11 - - -
18/09:00pm - - - - - ENE 20 28 11 15 - - -
18/08:30pm - - - - - ENE 15 19 8 10 - - -
18/08:00pm - - - - - ENE 26 32 14 17 - - -
18/07:30pm - - - - - NE 24 33 13 18 - - -
18/07:00pm - - - - - NNE 28 35 15 19 - - -
18/06:30pm - - - - - NNE 30 35 16 19 - - -
18/06:00pm - - - - - N 26 35 14 19 - - -
18/05:30pm - - - - - N 24 33 13 18 - - -
18/05:00pm - - - - - NE 22 26 12 14 - - -
18/04:30pm - - - - - NNE 24 33 13 18 - - -
18/04:00pm - - - - - NNE 26 33 14 18 - - -
18/03:30pm - - - - - ENE 22 30 12 16 - - -
18/03:00pm - - - - - ENE 24 30 13 16 - - -
18/02:30pm - - - - - ENE 26 35 14 19 - - -
18/02:00pm - - - - - ENE 28 37 15 20 - - -
18/01:30pm - - - - - NE 28 39 15 21 - - -
18/01:00pm - - - - - ENE 28 35 15 19 - - -
18/12:30pm - - - - - NE 28 41 15 22 - - -
18/12:00pm - - - - - NE 32 41 17 22 - - -
18/11:30am - - - - - NE 32 39 17 21 - - -
18/11:00am - - - - - NNE 28 35 15 19 - - -
18/10:30am - - - - - NNE 26 35 14 19 - - -
18/10:00am - - - - - NE 26 35 14 19 - - -
18/09:30am - - - - - NE 24 35 13 19 - - -
18/09:00am - - - - - NE 32 44 17 24 - - -
18/08:58am - - - - - NE 32 50 17 27 - - -
18/08:30am - - - - - ENE 30 37 16 20 - - -
18/08:00am - - - - - ENE 28 41 15 22 - - -
18/07:30am - - - - - E 24 32 13 17 - - -
18/07:00am - - - - - ENE 26 32 14 17 - - -
18/06:30am - - - - - ENE 24 33 13 18 - - -
18/06:00am - - - - - ENE 24 28 13 15 - - -
18/05:30am - - - - - ENE 26 33 14 18 - - -
18/05:00am - - - - - ENE 28 35 15 19 - - -
18/04:30am - - - - - ENE 15 22 8 12 - - -
18/04:00am - - - - - E 17 24 9 13 - - -
18/03:30am - - - - - E 22 33 12 18 - - -
18/03:00am - - - - - E 24 30 13 16 - - -
18/02:30am - - - - - ENE 22 28 12 15 - - -
18/02:00am - - - - - E 28 35 15 19 - - -
18/01:30am - - - - - ENE 20 30 11 16 - - -
18/01:00am - - - - - ENE 22 28 12 15 - - -
18/12:30am - - - - - ENE 20 26 11 14 - - -
18/12:00am - - - - - ENE 19 24 10 13 - - -
 
Date/Time
WST
Temp
°C
App
Temp
°C
Dew
Point
°C
Rel
Hum
%
Delta-T
°C
Wind Press
QNH
hPa
Press
MSL
hPa
Rain since
9am
mm
Dir  Spd
km/h
Gust
km/h
Spd
kts
Gust
kts
17/11:30pm - - - - - ENE 17 26 9 14 - - -
17/11:00pm - - - - - E 13 22 7 12 - - -
17/10:30pm - - - - - E 15 24 8 13 - - -
17/10:00pm - - - - - ESE 13 15 7 8 - - -
17/09:30pm - - - - - ESE 17 20 9 11 - - -
17/09:00pm - - - - - ESE 13 15 7 8 - - -
17/08:30pm - - - - - ESE 13 15 7 8 - - -
17/08:00pm - - - - - ESE 13 20 7 11 - - -
17/07:30pm - - - - - E 17 20 9 11 - - -
17/07:00pm - - - - - E 20 24 11 13 - - -
17/06:30pm - - - - - E 22 32 12 17 - - -
17/06:00pm - - - - - E 22 32 12 17 - - -
17/05:30pm - - - - - ESE 22 30 12 16 - - -
17/05:00pm - - - - - E 15 26 8 14 - - -
17/04:30pm - - - - - E 22 32 12 17 - - -
17/04:00pm - - - - - E 19 30 10 16 - - -
17/03:30pm - - - - - E 20 32 11 17 - - -
17/03:00pm - - - - - E 20 32 11 17 - - -
17/02:30pm - - - - - E 20 32 11 17 - - -
17/02:00pm - - - - - ENE 20 32 11 17 - - -
17/01:30pm - - - - - ENE 22 37 12 20 - - -
17/01:00pm - - - - - ENE 32 44 17 24 - - -
17/12:30pm - - - - - E 24 33 13 18 - - -
17/12:00pm - - - - - ENE 28 41 15 22 - - -
17/11:30am - - - - - ENE 33 41 18 22 - - -
17/11:00am - - - - - ENE 35 46 19 25 - - -
17/10:30am - - - - - ENE 35 46 19 25 - - -
17/10:00am - - - - - ENE 35 44 19 24 - - -
17/09:30am - - - - - ENE 41 56 22 30 - - -
17/09:00am - - - - - ENE 37 48 20 26 - - -
17/08:30am - - - - - ENE 37 48 20 26 - - -
17/08:00am - - - - - ENE 37 52 20 28 - - -
17/07:30am - - - - - ENE 41 50 22 27 - - -
17/07:07am - - - - - ENE 33 54 18 29 - - -
17/07:00am - - - - - E 35 48 19 26 - - -
17/06:30am - - - - - E 32 43 17 23 - - -
17/06:00am - - - - - E 33 43 18 23 - - -

Other formats

Comma delimited format used in spreadsheet applications
http://www.bom.gov.au/fwo/IDW60801/IDW60801.95620.axf

JavaScript Object Notation format (JSON) in row-major order
http://www.bom.gov.au/fwo/IDW60801/IDW60801.95620.json

Data quality

Most of these data are generated automatically and are frequently updated. Quality checks on data are not normally performed. It is possible for incorrect values to appear. Refer to information at About Latest Weather Observations and please check the disclaimer before using these data.